sensor_id;sensor_type;location;lat;lon;timestamp;P1;durP1;ratioP1;P2;durP2;ratioP2
47053;SDS011;32811;52.382;5.270;2023-07-09T00:01:13;6.43;;;4.38;;
47053;SDS011;32811;52.382;5.270;2023-07-09T00:03:44;5.68;;;3.47;;
47053;SDS011;32811;52.382;5.270;2023-07-09T00:06:14;6.65;;;4.15;;
47053;SDS011;32811;52.382;5.270;2023-07-09T00:08:42;7.75;;;4.15;;
47053;SDS011;32811;52.382;5.270;2023-07-09T00:11:10;6.20;;;3.88;;
47053;SDS011;32811;52.382;5.270;2023-07-09T00:13:37;6.97;;;4.28;;
47053;SDS011;32811;52.382;5.270;2023-07-09T00:16:07;7.75;;;3.72;;
47053;SDS011;32811;52.382;5.270;2023-07-09T00:18:40;6.70;;;4.47;;
47053;SDS011;32811;52.382;5.270;2023-07-09T00:21:07;4.90;;;3.78;;
47053;SDS011;32811;52.382;5.270;2023-07-09T00:23:33;4.93;;;4.03;;
47053;SDS011;32811;52.382;5.270;2023-07-09T00:26:00;5.32;;;3.97;;
47053;SDS011;32811;52.382;5.270;2023-07-09T00:28:30;8.38;;;4.35;;
47053;SDS011;32811;52.382;5.270;2023-07-09T00:30:56;7.78;;;5.47;;
47053;SDS011;32811;52.382;5.270;2023-07-09T00:33:23;7.70;;;4.15;;
47053;SDS011;32811;52.382;5.270;2023-07-09T00:38:26;5.65;;;3.88;;
47053;SDS011;32811;52.382;5.270;2023-07-09T00:43:35;9.60;;;3.90;;
47053;SDS011;32811;52.382;5.270;2023-07-09T00:51:44;6.43;;;4.30;;
47053;SDS011;32811;52.382;5.270;2023-07-09T00:54:23;5.47;;;3.85;;
47053;SDS011;32811;52.382;5.270;2023-07-09T00:56:59;6.82;;;3.95;;
47053;SDS011;32811;52.382;5.270;2023-07-09T00:59:30;7.47;;;3.60;;
47053;SDS011;32811;52.382;5.270;2023-07-09T01:01:58;8.85;;;4.03;;
47053;SDS011;32811;52.382;5.270;2023-07-09T01:04:26;5.95;;;4.38;;
47053;SDS011;32811;52.382;5.270;2023-07-09T01:06:55;6.30;;;3.53;;
47053;SDS011;32811;52.382;5.270;2023-07-09T01:09:23;9.05;;;4.78;;
47053;SDS011;32811;52.382;5.270;2023-07-09T01:11:51;6.95;;;3.83;;
47053;SDS011;32811;52.382;5.270;2023-07-09T01:14:22;4.88;;;3.92;;
47053;SDS011;32811;52.382;5.270;2023-07-09T01:16:53;9.20;;;4.07;;
47053;SDS011;32811;52.382;5.270;2023-07-09T01:19:26;5.78;;;3.58;;
47053;SDS011;32811;52.382;5.270;2023-07-09T01:21:55;7.68;;;4.65;;
47053;SDS011;32811;52.382;5.270;2023-07-09T01:27:15;9.07;;;4.03;;
47053;SDS011;32811;52.382;5.270;2023-07-09T01:29:43;7.75;;;4.93;;
47053;SDS011;32811;52.382;5.270;2023-07-09T01:32:16;5.00;;;3.85;;
47053;SDS011;32811;52.382;5.270;2023-07-09T01:34:46;5.73;;;4.13;;
47053;SDS011;32811;52.382;5.270;2023-07-09T01:37:15;4.80;;;3.83;;
47053;SDS011;32811;52.382;5.270;2023-07-09T01:39:43;6.03;;;4.63;;
47053;SDS011;32811;52.382;5.270;2023-07-09T01:42:10;4.75;;;3.65;;
47053;SDS011;32811;52.382;5.270;2023-07-09T01:44:37;10.20;;;5.30;;
47053;SDS011;32811;52.382;5.270;2023-07-09T01:47:04;5.68;;;4.30;;
47053;SDS011;32811;52.382;5.270;2023-07-09T01:49:31;7.15;;;4.85;;
47053;SDS011;32811;52.382;5.270;2023-07-09T01:51:59;5.60;;;4.18;;
47053;SDS011;32811;52.382;5.270;2023-07-09T01:54:30;7.05;;;4.25;;
47053;SDS011;32811;52.382;5.270;2023-07-09T01:57:22;4.97;;;4.05;;
47053;SDS011;32811;52.382;5.270;2023-07-09T01:59:51;9.75;;;4.25;;
47053;SDS011;32811;52.382;5.270;2023-07-09T02:02:21;7.28;;;4.45;;
47053;SDS011;32811;52.382;5.270;2023-07-09T02:04:50;7.60;;;4.55;;
47053;SDS011;32811;52.382;5.270;2023-07-09T02:07:19;10.45;;;4.10;;
47053;SDS011;32811;52.382;5.270;2023-07-09T02:09:47;7.57;;;4.78;;
47053;SDS011;32811;52.382;5.270;2023-07-09T02:12:14;6.15;;;4.47;;
47053;SDS011;32811;52.382;5.270;2023-07-09T02:14:42;4.60;;;4.10;;
47053;SDS011;32811;52.382;5.270;2023-07-09T02:17:10;6.82;;;4.43;;
47053;SDS011;32811;52.382;5.270;2023-07-09T02:19:38;7.78;;;4.65;;
47053;SDS011;32811;52.382;5.270;2023-07-09T02:22:06;5.97;;;4.93;;
47053;SDS011;32811;52.382;5.270;2023-07-09T02:24:34;10.23;;;5.72;;
47053;SDS011;32811;52.382;5.270;2023-07-09T02:27:01;6.97;;;4.45;;
47053;SDS011;32811;52.382;5.270;2023-07-09T02:29:30;6.82;;;4.97;;
47053;SDS011;32811;52.382;5.270;2023-07-09T02:31:58;12.00;;;4.93;;
47053;SDS011;32811;52.382;5.270;2023-07-09T02:34:27;8.35;;;4.95;;
47053;SDS011;32811;52.382;5.270;2023-07-09T02:36:55;7.63;;;4.80;;
47053;SDS011;32811;52.382;5.270;2023-07-09T02:39:23;8.60;;;5.82;;
47053;SDS011;32811;52.382;5.270;2023-07-09T02:41:51;7.07;;;5.57;;
47053;SDS011;32811;52.382;5.270;2023-07-09T02:44:17;7.93;;;4.88;;
47053;SDS011;32811;52.382;5.270;2023-07-09T02:46:44;7.95;;;5.45;;
47053;SDS011;32811;52.382;5.270;2023-07-09T02:49:12;11.73;;;5.65;;
47053;SDS011;32811;52.382;5.270;2023-07-09T02:51:40;11.65;;;5.50;;
47053;SDS011;32811;52.382;5.270;2023-07-09T02:54:07;5.50;;;4.90;;
47053;SDS011;32811;52.382;5.270;2023-07-09T02:56:33;6.72;;;4.53;;
47053;SDS011;32811;52.382;5.270;2023-07-09T02:59:00;6.22;;;4.95;;
47053;SDS011;32811;52.382;5.270;2023-07-09T03:01:27;11.85;;;5.40;;
47053;SDS011;32811;52.382;5.270;2023-07-09T03:03:54;10.18;;;5.72;;
47053;SDS011;32811;52.382;5.270;2023-07-09T03:06:22;9.98;;;5.28;;
47053;SDS011;32811;52.382;5.270;2023-07-09T03:08:50;9.93;;;5.38;;
47053;SDS011;32811;52.382;5.270;2023-07-09T03:11:17;8.82;;;5.25;;
47053;SDS011;32811;52.382;5.270;2023-07-09T03:13:45;8.48;;;5.30;;
47053;SDS011;32811;52.382;5.270;2023-07-09T03:16:13;13.00;;;5.47;;
47053;SDS011;32811;52.382;5.270;2023-07-09T03:18:41;11.02;;;5.25;;
47053;SDS011;32811;52.382;5.270;2023-07-09T03:21:08;7.25;;;4.80;;
47053;SDS011;32811;52.382;5.270;2023-07-09T03:23:35;12.18;;;5.95;;
47053;SDS011;32811;52.382;5.270;2023-07-09T03:26:01;11.88;;;5.63;;
47053;SDS011;32811;52.382;5.270;2023-07-09T03:28:30;7.72;;;5.53;;
47053;SDS011;32811;52.382;5.270;2023-07-09T03:30:58;8.35;;;6.03;;
47053;SDS011;32811;52.382;5.270;2023-07-09T03:33:25;7.07;;;5.35;;
47053;SDS011;32811;52.382;5.270;2023-07-09T03:35:52;8.30;;;5.10;;
47053;SDS011;32811;52.382;5.270;2023-07-09T03:38:19;6.35;;;5.20;;
47053;SDS011;32811;52.382;5.270;2023-07-09T03:40:45;9.43;;;5.53;;
47053;SDS011;32811;52.382;5.270;2023-07-09T03:43:15;6.32;;;5.28;;
47053;SDS011;32811;52.382;5.270;2023-07-09T03:45:43;7.30;;;4.70;;
47053;SDS011;32811;52.382;5.270;2023-07-09T03:48:10;6.20;;;4.95;;
47053;SDS011;32811;52.382;5.270;2023-07-09T03:50:37;6.78;;;5.72;;
47053;SDS011;32811;52.382;5.270;2023-07-09T03:53:04;6.50;;;4.75;;
47053;SDS011;32811;52.382;5.270;2023-07-09T03:55:32;8.73;;;5.60;;
47053;SDS011;32811;52.382;5.270;2023-07-09T03:57:58;6.13;;;5.22;;
47053;SDS011;32811;52.382;5.270;2023-07-09T04:00:25;8.80;;;5.95;;
47053;SDS011;32811;52.382;5.270;2023-07-09T04:02:52;6.30;;;4.93;;
47053;SDS011;32811;52.382;5.270;2023-07-09T04:05:18;7.10;;;4.70;;
47053;SDS011;32811;52.382;5.270;2023-07-09T04:07:45;7.47;;;5.13;;
47053;SDS011;32811;52.382;5.270;2023-07-09T04:10:13;8.50;;;4.80;;
47053;SDS011;32811;52.382;5.270;2023-07-09T04:12:40;9.93;;;6.38;;
47053;SDS011;32811;52.382;5.270;2023-07-09T04:15:06;7.05;;;5.50;;
47053;SDS011;32811;52.382;5.270;2023-07-09T04:17:34;6.50;;;5.15;;
47053;SDS011;32811;52.382;5.270;2023-07-09T04:20:02;9.73;;;5.65;;
47053;SDS011;32811;52.382;5.270;2023-07-09T04:22:35;7.10;;;5.35;;
47053;SDS011;32811;52.382;5.270;2023-07-09T04:25:04;10.32;;;4.95;;
47053;SDS011;32811;52.382;5.270;2023-07-09T04:27:33;8.93;;;5.00;;
47053;SDS011;32811;52.382;5.270;2023-07-09T04:30:00;8.48;;;4.57;;
47053;SDS011;32811;52.382;5.270;2023-07-09T04:32:27;7.63;;;5.45;;
47053;SDS011;32811;52.382;5.270;2023-07-09T04:34:54;10.52;;;5.72;;
47053;SDS011;32811;52.382;5.270;2023-07-09T04:37:21;8.85;;;5.65;;
47053;SDS011;32811;52.382;5.270;2023-07-09T04:39:47;9.05;;;5.40;;
47053;SDS011;32811;52.382;5.270;2023-07-09T04:42:15;5.55;;;4.90;;
47053;SDS011;32811;52.382;5.270;2023-07-09T04:44:44;7.35;;;5.30;;
47053;SDS011;32811;52.382;5.270;2023-07-09T04:47:11;17.75;;;7.13;;
47053;SDS011;32811;52.382;5.270;2023-07-09T04:49:38;7.05;;;5.20;;
47053;SDS011;32811;52.382;5.270;2023-07-09T04:52:05;8.30;;;5.65;;
47053;SDS011;32811;52.382;5.270;2023-07-09T04:54:32;7.50;;;4.68;;
47053;SDS011;32811;52.382;5.270;2023-07-09T04:56:59;8.55;;;5.22;;
47053;SDS011;32811;52.382;5.270;2023-07-09T04:59:26;5.55;;;4.65;;
47053;SDS011;32811;52.382;5.270;2023-07-09T05:01:53;10.23;;;5.32;;
47053;SDS011;32811;52.382;5.270;2023-07-09T05:04:20;6.00;;;5.00;;
47053;SDS011;32811;52.382;5.270;2023-07-09T05:06:47;7.05;;;4.90;;
47053;SDS011;32811;52.382;5.270;2023-07-09T05:09:14;6.80;;;4.60;;
47053;SDS011;32811;52.382;5.270;2023-07-09T05:11:41;8.82;;;5.40;;
47053;SDS011;32811;52.382;5.270;2023-07-09T05:14:07;6.32;;;5.05;;
47053;SDS011;32811;52.382;5.270;2023-07-09T05:16:34;6.53;;;5.30;;
47053;SDS011;32811;52.382;5.270;2023-07-09T05:19:01;8.35;;;4.93;;
47053;SDS011;32811;52.382;5.270;2023-07-09T05:21:27;8.93;;;5.10;;
47053;SDS011;32811;52.382;5.270;2023-07-09T05:23:54;5.70;;;4.45;;
47053;SDS011;32811;52.382;5.270;2023-07-09T05:26:20;8.65;;;5.00;;
47053;SDS011;32811;52.382;5.270;2023-07-09T05:28:47;6.47;;;5.45;;
47053;SDS011;32811;52.382;5.270;2023-07-09T05:31:14;10.25;;;4.88;;
47053;SDS011;32811;52.382;5.270;2023-07-09T05:33:41;8.98;;;5.57;;
47053;SDS011;32811;52.382;5.270;2023-07-09T05:36:08;7.75;;;5.55;;
47053;SDS011;32811;52.382;5.270;2023-07-09T05:38:42;8.10;;;5.35;;
47053;SDS011;32811;52.382;5.270;2023-07-09T05:41:09;6.78;;;4.82;;
47053;SDS011;32811;52.382;5.270;2023-07-09T05:43:36;9.57;;;4.80;;
47053;SDS011;32811;52.382;5.270;2023-07-09T05:46:04;9.27;;;5.07;;
47053;SDS011;32811;52.382;5.270;2023-07-09T05:48:32;7.93;;;5.38;;
47053;SDS011;32811;52.382;5.270;2023-07-09T05:50:59;6.40;;;4.80;;
47053;SDS011;32811;52.382;5.270;2023-07-09T05:53:26;9.18;;;5.38;;
47053;SDS011;32811;52.382;5.270;2023-07-09T05:55:53;7.03;;;5.20;;
47053;SDS011;32811;52.382;5.270;2023-07-09T05:58:21;8.15;;;5.07;;
47053;SDS011;32811;52.382;5.270;2023-07-09T06:00:51;7.63;;;5.35;;
47053;SDS011;32811;52.382;5.270;2023-07-09T06:03:24;8.80;;;5.03;;
47053;SDS011;32811;52.382;5.270;2023-07-09T06:05:53;8.23;;;4.80;;
47053;SDS011;32811;52.382;5.270;2023-07-09T06:08:20;6.25;;;4.82;;
47053;SDS011;32811;52.382;5.270;2023-07-09T06:10:51;7.47;;;4.68;;
47053;SDS011;32811;52.382;5.270;2023-07-09T06:13:22;8.25;;;4.53;;
47053;SDS011;32811;52.382;5.270;2023-07-09T06:15:50;6.07;;;4.45;;
47053;SDS011;32811;52.382;5.270;2023-07-09T06:18:17;4.57;;;4.03;;
47053;SDS011;32811;52.382;5.270;2023-07-09T06:20:48;7.28;;;4.65;;
47053;SDS011;32811;52.382;5.270;2023-07-09T06:23:16;8.43;;;4.30;;
47053;SDS011;32811;52.382;5.270;2023-07-09T06:25:44;7.25;;;4.32;;
47053;SDS011;32811;52.382;5.270;2023-07-09T06:28:14;7.88;;;4.45;;
47053;SDS011;32811;52.382;5.270;2023-07-09T06:30:42;6.03;;;4.18;;
47053;SDS011;32811;52.382;5.270;2023-07-09T06:33:10;5.85;;;4.53;;
47053;SDS011;32811;52.382;5.270;2023-07-09T06:35:45;7.10;;;4.50;;
47053;SDS011;32811;52.382;5.270;2023-07-09T06:38:16;6.22;;;4.38;;
47053;SDS011;32811;52.382;5.270;2023-07-09T06:40:43;7.43;;;4.50;;
47053;SDS011;32811;52.382;5.270;2023-07-09T06:43:10;5.70;;;4.05;;
47053;SDS011;32811;52.382;5.270;2023-07-09T06:45:37;11.55;;;5.57;;
47053;SDS011;32811;52.382;5.270;2023-07-09T06:48:04;6.45;;;4.45;;
47053;SDS011;32811;52.382;5.270;2023-07-09T06:50:32;7.25;;;4.40;;
47053;SDS011;32811;52.382;5.270;2023-07-09T06:53:00;9.07;;;4.18;;
47053;SDS011;32811;52.382;5.270;2023-07-09T06:55:26;5.95;;;4.28;;
47053;SDS011;32811;52.382;5.270;2023-07-09T06:57:53;6.85;;;3.72;;
47053;SDS011;32811;52.382;5.270;2023-07-09T07:00:20;4.75;;;3.30;;
47053;SDS011;32811;52.382;5.270;2023-07-09T07:02:47;4.72;;;4.03;;
47053;SDS011;32811;52.382;5.270;2023-07-09T07:05:13;8.32;;;4.85;;
47053;SDS011;32811;52.382;5.270;2023-07-09T07:07:40;6.50;;;4.82;;
47053;SDS011;32811;52.382;5.270;2023-07-09T07:10:07;6.43;;;4.90;;
47053;SDS011;32811;52.382;5.270;2023-07-09T07:12:44;6.13;;;4.82;;
47053;SDS011;32811;52.382;5.270;2023-07-09T07:15:13;5.88;;;4.53;;
47053;SDS011;32811;52.382;5.270;2023-07-09T07:17:42;7.35;;;5.07;;
47053;SDS011;32811;52.382;5.270;2023-07-09T07:20:10;7.32;;;4.95;;
47053;SDS011;32811;52.382;5.270;2023-07-09T07:22:38;5.85;;;4.55;;
47053;SDS011;32811;52.382;5.270;2023-07-09T07:25:05;6.20;;;4.85;;
47053;SDS011;32811;52.382;5.270;2023-07-09T07:27:34;11.88;;;5.32;;
47053;SDS011;32811;52.382;5.270;2023-07-09T07:30:04;8.80;;;6.43;;
47053;SDS011;32811;52.382;5.270;2023-07-09T07:32:38;9.50;;;7.50;;
47053;SDS011;32811;52.382;5.270;2023-07-09T07:35:09;12.35;;;9.25;;
47053;SDS011;32811;52.382;5.270;2023-07-09T07:37:36;12.48;;;7.88;;
47053;SDS011;32811;52.382;5.270;2023-07-09T07:40:03;12.70;;;9.25;;
47053;SDS011;32811;52.382;5.270;2023-07-09T07:42:32;16.10;;;10.60;;
47053;SDS011;32811;52.382;5.270;2023-07-09T07:44:59;19.02;;;11.68;;
47053;SDS011;32811;52.382;5.270;2023-07-09T07:47:26;14.32;;;10.85;;
47053;SDS011;32811;52.382;5.270;2023-07-09T07:49:53;12.80;;;10.50;;
47053;SDS011;32811;52.382;5.270;2023-07-09T07:52:20;17.02;;;11.30;;
47053;SDS011;32811;52.382;5.270;2023-07-09T07:54:47;13.23;;;11.52;;
47053;SDS011;32811;52.382;5.270;2023-07-09T07:57:13;14.77;;;11.68;;
47053;SDS011;32811;52.382;5.270;2023-07-09T07:59:40;22.13;;;13.13;;
47053;SDS011;32811;52.382;5.270;2023-07-09T08:02:10;14.23;;;11.13;;
47053;SDS011;32811;52.382;5.270;2023-07-09T08:04:38;19.85;;;13.10;;
47053;SDS011;32811;52.382;5.270;2023-07-09T08:07:07;17.40;;;13.15;;
47053;SDS011;32811;52.382;5.270;2023-07-09T08:09:34;17.60;;;13.30;;
47053;SDS011;32811;52.382;5.270;2023-07-09T08:12:02;19.35;;;14.70;;
47053;SDS011;32811;52.382;5.270;2023-07-09T08:14:36;20.88;;;14.07;;
47053;SDS011;32811;52.382;5.270;2023-07-09T08:17:03;13.43;;;11.52;;
47053;SDS011;32811;52.382;5.270;2023-07-09T08:19:31;15.30;;;12.32;;
47053;SDS011;32811;52.382;5.270;2023-07-09T08:21:58;17.35;;;12.98;;
47053;SDS011;32811;52.382;5.270;2023-07-09T08:24:25;11.98;;;10.65;;
47053;SDS011;32811;52.382;5.270;2023-07-09T08:26:51;13.52;;;11.02;;
47053;SDS011;32811;52.382;5.270;2023-07-09T08:29:18;12.32;;;9.70;;
47053;SDS011;32811;52.382;5.270;2023-07-09T08:31:45;13.82;;;9.73;;
47053;SDS011;32811;52.382;5.270;2023-07-09T08:34:12;11.68;;;9.40;;
47053;SDS011;32811;52.382;5.270;2023-07-09T08:36:38;13.43;;;9.98;;
47053;SDS011;32811;52.382;5.270;2023-07-09T08:39:05;15.45;;;8.23;;
47053;SDS011;32811;52.382;5.270;2023-07-09T08:41:42;8.05;;;7.25;;
47053;SDS011;32811;52.382;5.270;2023-07-09T08:44:27;11.02;;;7.57;;
47053;SDS011;32811;52.382;5.270;2023-07-09T08:47:00;11.10;;;8.05;;
47053;SDS011;32811;52.382;5.270;2023-07-09T08:52:00;16.65;;;8.32;;
47053;SDS011;32811;52.382;5.270;2023-07-09T08:54:28;9.05;;;6.95;;
47053;SDS011;32811;52.382;5.270;2023-07-09T08:56:59;23.63;;;8.43;;
47053;SDS011;32811;52.382;5.270;2023-07-09T08:59:40;16.55;;;7.85;;
47053;SDS011;32811;52.382;5.270;2023-07-09T09:02:14;12.82;;;7.03;;
47053;SDS011;32811;52.382;5.270;2023-07-09T09:04:48;35.33;;;8.50;;
47053;SDS011;32811;52.382;5.270;2023-07-09T09:07:33;18.08;;;8.60;;
47053;SDS011;32811;52.382;5.270;2023-07-09T09:10:10;9.70;;;6.40;;
47053;SDS011;32811;52.382;5.270;2023-07-09T09:12:45;11.35;;;7.20;;
47053;SDS011;32811;52.382;5.270;2023-07-09T09:15:25;8.68;;;7.03;;
47053;SDS011;32811;52.382;5.270;2023-07-09T10:40:43;4.57;;;3.13;;
47053;SDS011;32811;52.382;5.270;2023-07-09T10:43:22;7.30;;;4.15;;
47053;SDS011;32811;52.382;5.270;2023-07-09T10:45:59;8.88;;;4.82;;
47053;SDS011;32811;52.382;5.270;2023-07-09T10:51:10;6.77;;;3.93;;
47053;SDS011;32811;52.382;5.270;2023-07-09T10:53:45;6.13;;;5.10;;
47053;SDS011;32811;52.382;5.270;2023-07-09T10:56:20;7.05;;;5.28;;
47053;SDS011;32811;52.382;5.270;2023-07-09T10:58:52;8.65;;;4.90;;
47053;SDS011;32811;52.382;5.270;2023-07-09T11:01:47;9.02;;;4.88;;
47053;SDS011;32811;52.382;5.270;2023-07-09T11:04:21;8.75;;;3.58;;
47053;SDS011;32811;52.382;5.270;2023-07-09T11:06:59;7.07;;;3.45;;
47053;SDS011;32811;52.382;5.270;2023-07-09T11:09:30;4.35;;;2.63;;
47053;SDS011;32811;52.382;5.270;2023-07-09T11:12:02;5.43;;;3.40;;
47053;SDS011;32811;52.382;5.270;2023-07-09T11:17:17;4.72;;;2.90;;
47053;SDS011;32811;52.382;5.270;2023-07-09T11:19:46;4.75;;;3.00;;
47053;SDS011;32811;52.382;5.270;2023-07-09T11:22:21;4.70;;;2.90;;
47053;SDS011;32811;52.382;5.270;2023-07-09T11:29:56;5.90;;;3.40;;
47053;SDS011;32811;52.382;5.270;2023-07-09T11:32:28;4.30;;;3.90;;
47053;SDS011;32811;52.382;5.270;2023-07-09T11:35:06;9.48;;;4.78;;
47053;SDS011;32811;52.382;5.270;2023-07-09T11:37:43;9.65;;;4.70;;
47053;SDS011;32811;52.382;5.270;2023-07-09T11:40:11;12.45;;;4.95;;
47053;SDS011;32811;52.382;5.270;2023-07-09T11:42:53;6.57;;;4.10;;
47053;SDS011;32811;52.382;5.270;2023-07-09T11:45:33;7.75;;;4.22;;
47053;SDS011;32811;52.382;5.270;2023-07-09T11:50:48;4.53;;;3.88;;
47053;SDS011;32811;52.382;5.270;2023-07-09T11:56:19;8.40;;;4.18;;
47053;SDS011;32811;52.382;5.270;2023-07-09T11:58:48;7.38;;;4.75;;
47053;SDS011;32811;52.382;5.270;2023-07-09T12:01:30;7.82;;;4.40;;
47053;SDS011;32811;52.382;5.270;2023-07-09T12:04:03;7.78;;;5.07;;
47053;SDS011;32811;52.382;5.270;2023-07-09T12:06:31;9.95;;;4.30;;
47053;SDS011;32811;52.382;5.270;2023-07-09T12:09:01;8.82;;;4.20;;
47053;SDS011;32811;52.382;5.270;2023-07-09T12:11:30;7.88;;;4.05;;
47053;SDS011;32811;52.382;5.270;2023-07-09T12:14:20;7.28;;;4.57;;
47053;SDS011;32811;52.382;5.270;2023-07-09T12:16:52;6.10;;;4.47;;
47053;SDS011;32811;52.382;5.270;2023-07-09T12:19:20;7.22;;;4.20;;
47053;SDS011;32811;52.382;5.270;2023-07-09T12:21:53;5.20;;;3.67;;
47053;SDS011;32811;52.382;5.270;2023-07-09T12:24:24;5.93;;;3.95;;
47053;SDS011;32811;52.382;5.270;2023-07-09T12:26:58;6.70;;;3.90;;
47053;SDS011;32811;52.382;5.270;2023-07-09T12:29:27;6.57;;;4.28;;
47053;SDS011;32811;52.382;5.270;2023-07-09T12:31:58;6.63;;;3.78;;
47053;SDS011;32811;52.382;5.270;2023-07-09T12:34:30;5.63;;;3.47;;
47053;SDS011;32811;52.382;5.270;2023-07-09T12:36:57;4.88;;;3.65;;
47053;SDS011;32811;52.382;5.270;2023-07-09T12:39:26;5.22;;;2.80;;
47053;SDS011;32811;52.382;5.270;2023-07-09T12:41:56;5.65;;;2.88;;
47053;SDS011;32811;52.382;5.270;2023-07-09T12:44:25;4.35;;;2.80;;
47053;SDS011;32811;52.382;5.270;2023-07-09T12:46:54;6.07;;;2.60;;
47053;SDS011;32811;52.382;5.270;2023-07-09T12:49:25;3.83;;;2.70;;
47053;SDS011;32811;52.382;5.270;2023-07-09T12:51:56;5.63;;;2.53;;
47053;SDS011;32811;52.382;5.270;2023-07-09T12:54:24;5.70;;;2.30;;
47053;SDS011;32811;52.382;5.270;2023-07-09T12:56:52;3.60;;;2.00;;
47053;SDS011;32811;52.382;5.270;2023-07-09T13:02:37;3.47;;;2.30;;
47053;SDS011;32811;52.382;5.270;2023-07-09T13:04:41;2.65;;;1.60;;
47053;SDS011;32811;52.382;5.270;2023-07-09T13:11:57;4.95;;;1.80;;
47053;SDS011;32811;52.382;5.270;2023-07-09T13:15:05;5.10;;;3.05;;
47053;SDS011;32811;52.382;5.270;2023-07-09T13:17:35;3.78;;;2.10;;
47053;SDS011;32811;52.382;5.270;2023-07-09T13:20:02;2.95;;;1.70;;
47053;SDS011;32811;52.382;5.270;2023-07-09T13:22:29;5.82;;;2.00;;
47053;SDS011;32811;52.382;5.270;2023-07-09T13:24:55;4.35;;;2.00;;
47053;SDS011;32811;52.382;5.270;2023-07-09T13:27:22;2.67;;;1.95;;
47053;SDS011;32811;52.382;5.270;2023-07-09T13:29:50;6.95;;;1.70;;
47053;SDS011;32811;52.382;5.270;2023-07-09T13:32:17;2.08;;;1.30;;
47053;SDS011;32811;52.382;5.270;2023-07-09T13:34:45;3.58;;;1.20;;
47053;SDS011;32811;52.382;5.270;2023-07-09T13:37:15;5.68;;;1.50;;
47053;SDS011;32811;52.382;5.270;2023-07-09T13:39:43;5.82;;;2.08;;
47053;SDS011;32811;52.382;5.270;2023-07-09T13:42:15;6.97;;;1.75;;
47053;SDS011;32811;52.382;5.270;2023-07-09T13:44:43;5.00;;;1.80;;
47053;SDS011;32811;52.382;5.270;2023-07-09T13:47:13;5.75;;;1.88;;
47053;SDS011;32811;52.382;5.270;2023-07-09T13:49:43;5.88;;;1.73;;
47053;SDS011;32811;52.382;5.270;2023-07-09T13:52:16;8.48;;;1.92;;
47053;SDS011;32811;52.382;5.270;2023-07-09T13:54:47;8.45;;;2.88;;
47053;SDS011;32811;52.382;5.270;2023-07-09T13:57:15;10.50;;;2.92;;
47053;SDS011;32811;52.382;5.270;2023-07-09T13:59:44;6.93;;;3.25;;
47053;SDS011;32811;52.382;5.270;2023-07-09T14:02:30;7.07;;;2.83;;
47053;SDS011;32811;52.382;5.270;2023-07-09T14:05:00;10.55;;;2.92;;
47053;SDS011;32811;52.382;5.270;2023-07-09T14:07:30;7.50;;;2.85;;
47053;SDS011;32811;52.382;5.270;2023-07-09T14:09:59;11.13;;;3.45;;
47053;SDS011;32811;52.382;5.270;2023-07-09T14:12:27;9.77;;;2.97;;
47053;SDS011;32811;52.382;5.270;2023-07-09T14:14:55;6.22;;;2.78;;
47053;SDS011;32811;52.382;5.270;2023-07-09T14:17:24;11.85;;;3.10;;
47053;SDS011;32811;52.382;5.270;2023-07-09T14:19:52;7.50;;;3.38;;
47053;SDS011;32811;52.382;5.270;2023-07-09T14:22:35;9.13;;;2.65;;
47053;SDS011;32811;52.382;5.270;2023-07-09T14:25:04;6.22;;;2.55;;
47053;SDS011;32811;52.382;5.270;2023-07-09T14:27:31;11.52;;;3.10;;
47053;SDS011;32811;52.382;5.270;2023-07-09T14:29:58;7.10;;;2.47;;
47053;SDS011;32811;52.382;5.270;2023-07-09T14:35:15;8.38;;;3.22;;
47053;SDS011;32811;52.382;5.270;2023-07-09T14:37:45;9.88;;;3.58;;
47053;SDS011;32811;52.382;5.270;2023-07-09T14:40:14;12.93;;;4.40;;
47053;SDS011;32811;52.382;5.270;2023-07-09T14:42:42;15.55;;;4.15;;
47053;SDS011;32811;52.382;5.270;2023-07-09T14:45:20;12.88;;;5.18;;
47053;SDS011;32811;52.382;5.270;2023-07-09T14:47:50;10.75;;;5.00;;
47053;SDS011;32811;52.382;5.270;2023-07-09T14:50:18;13.45;;;4.80;;
47053;SDS011;32811;52.382;5.270;2023-07-09T14:52:45;13.32;;;6.18;;
47053;SDS011;32811;52.382;5.270;2023-07-09T14:55:20;14.32;;;5.47;;
47053;SDS011;32811;52.382;5.270;2023-07-09T14:57:47;8.52;;;5.07;;
47053;SDS011;32811;52.382;5.270;2023-07-09T15:00:18;10.60;;;5.70;;
47053;SDS011;32811;52.382;5.270;2023-07-09T15:02:48;11.68;;;6.60;;
47053;SDS011;32811;52.382;5.270;2023-07-09T15:07:46;17.70;;;5.75;;
47053;SDS011;32811;52.382;5.270;2023-07-09T15:10:15;13.25;;;5.90;;
47053;SDS011;32811;52.382;5.270;2023-07-09T15:12:47;10.65;;;5.63;;
47053;SDS011;32811;52.382;5.270;2023-07-09T15:15:24;12.40;;;5.45;;
47053;SDS011;32811;52.382;5.270;2023-07-09T15:17:55;15.80;;;6.07;;
47053;SDS011;32811;52.382;5.270;2023-07-09T15:20:24;21.65;;;6.95;;
47053;SDS011;32811;52.382;5.270;2023-07-09T15:22:54;10.05;;;5.68;;
47053;SDS011;32811;52.382;5.270;2023-07-09T15:25:24;10.52;;;4.55;;
47053;SDS011;32811;52.382;5.270;2023-07-09T15:27:53;6.63;;;3.53;;
47053;SDS011;32811;52.382;5.270;2023-07-09T15:30:26;6.65;;;3.35;;
47053;SDS011;32811;52.382;5.270;2023-07-09T15:32:55;8.50;;;3.45;;
47053;SDS011;32811;52.382;5.270;2023-07-09T15:35:34;12.50;;;4.40;;
47053;SDS011;32811;52.382;5.270;2023-07-09T15:38:45;12.30;;;3.58;;
47053;SDS011;32811;52.382;5.270;2023-07-09T15:40:52;9.23;;;3.65;;
47053;SDS011;32811;52.382;5.270;2023-07-09T15:43:19;6.72;;;2.63;;
47053;SDS011;32811;52.382;5.270;2023-07-09T15:45:47;8.40;;;2.90;;
47053;SDS011;32811;52.382;5.270;2023-07-09T15:51:02;3.75;;;1.60;;
47053;SDS011;32811;52.382;5.270;2023-07-09T15:53:30;3.53;;;1.40;;
47053;SDS011;32811;52.382;5.270;2023-07-09T15:55:59;3.67;;;1.10;;
47053;SDS011;32811;52.382;5.270;2023-07-09T15:58:38;5.13;;;1.65;;
47053;SDS011;32811;52.382;5.270;2023-07-09T16:01:09;5.65;;;1.20;;
47053;SDS011;32811;52.382;5.270;2023-07-09T16:03:37;5.93;;;1.58;;
47053;SDS011;32811;52.382;5.270;2023-07-09T16:06:04;10.23;;;1.20;;
47053;SDS011;32811;52.382;5.270;2023-07-09T16:08:31;4.38;;;1.15;;
47053;SDS011;32811;52.382;5.270;2023-07-09T16:10:58;1.75;;;1.10;;
47053;SDS011;32811;52.382;5.270;2023-07-09T16:13:25;2.28;;;1.25;;
47053;SDS011;32811;52.382;5.270;2023-07-09T16:15:53;2.70;;;1.65;;
47053;SDS011;32811;52.382;5.270;2023-07-09T16:18:20;2.13;;;1.42;;
47053;SDS011;32811;52.382;5.270;2023-07-09T16:20:47;3.17;;;1.52;;
47053;SDS011;32811;52.382;5.270;2023-07-09T16:23:17;2.40;;;1.75;;
47053;SDS011;32811;52.382;5.270;2023-07-09T16:25:46;3.53;;;2.30;;
47053;SDS011;32811;52.382;5.270;2023-07-09T16:28:15;4.70;;;2.38;;
47053;SDS011;32811;52.382;5.270;2023-07-09T16:30:46;5.40;;;2.38;;
47053;SDS011;32811;52.382;5.270;2023-07-09T16:33:14;4.95;;;2.30;;
47053;SDS011;32811;52.382;5.270;2023-07-09T16:35:41;5.15;;;2.97;;
47053;SDS011;32811;52.382;5.270;2023-07-09T16:38:11;3.75;;;2.60;;
47053;SDS011;32811;52.382;5.270;2023-07-09T16:40:39;6.93;;;3.30;;
47053;SDS011;32811;52.382;5.270;2023-07-09T16:43:16;6.10;;;3.33;;
47053;SDS011;32811;52.382;5.270;2023-07-09T16:45:44;7.43;;;3.60;;
47053;SDS011;32811;52.382;5.270;2023-07-09T16:48:16;7.55;;;3.85;;
47053;SDS011;32811;52.382;5.270;2023-07-09T16:50:44;7.70;;;3.80;;
47053;SDS011;32811;52.382;5.270;2023-07-09T16:53:12;7.90;;;4.22;;
47053;SDS011;32811;52.382;5.270;2023-07-09T16:55:41;6.85;;;4.20;;
47053;SDS011;32811;52.382;5.270;2023-07-09T16:58:30;7.07;;;4.82;;
47053;SDS011;32811;52.382;5.270;2023-07-09T17:00:57;8.85;;;4.80;;
47053;SDS011;32811;52.382;5.270;2023-07-09T17:03:24;10.90;;;5.40;;
47053;SDS011;32811;52.382;5.270;2023-07-09T17:05:51;9.27;;;5.55;;
47053;SDS011;32811;52.382;5.270;2023-07-09T17:08:20;11.10;;;5.38;;